sensor_id;sensor_type;location;lat;lon;timestamp;P1;durP1;ratioP1;P2;durP2;ratioP2
76894;SDS011;65855;42.030;13.078;2023-12-20T00:00:56;2.78;;;1.63;;
76894;SDS011;65855;42.030;13.078;2023-12-20T00:03:21;3.10;;;1.80;;
76894;SDS011;65855;42.030;13.078;2023-12-20T00:05:47;3.42;;;2.15;;
76894;SDS011;65855;42.030;13.078;2023-12-20T00:08:12;4.80;;;2.92;;
76894;SDS011;65855;42.030;13.078;2023-12-20T00:10:37;3.83;;;3.03;;
76894;SDS011;65855;42.030;13.078;2023-12-20T00:13:03;2.83;;;1.93;;
76894;SDS011;65855;42.030;13.078;2023-12-20T00:15:28;3.15;;;2.63;;
76894;SDS011;65855;42.030;13.078;2023-12-20T00:17:53;2.58;;;2.00;;
76894;SDS011;65855;42.030;13.078;2023-12-20T00:20:19;3.28;;;2.72;;
76894;SDS011;65855;42.030;13.078;2023-12-20T00:22:44;1.40;;;0.77;;
76894;SDS011;65855;42.030;13.078;2023-12-20T00:25:10;2.80;;;2.13;;
76894;SDS011;65855;42.030;13.078;2023-12-20T00:27:35;4.03;;;3.63;;
76894;SDS011;65855;42.030;13.078;2023-12-20T00:30:00;2.67;;;1.77;;
76894;SDS011;65855;42.030;13.078;2023-12-20T00:32:25;2.70;;;1.83;;
76894;SDS011;65855;42.030;13.078;2023-12-20T00:34:51;3.43;;;3.13;;
76894;SDS011;65855;42.030;13.078;2023-12-20T00:37:16;1.43;;;0.80;;
76894;SDS011;65855;42.030;13.078;2023-12-20T00:39:41;2.75;;;1.88;;
76894;SDS011;65855;42.030;13.078;2023-12-20T00:42:07;3.10;;;2.78;;
76894;SDS011;65855;42.030;13.078;2023-12-20T00:44:32;3.33;;;2.27;;
76894;SDS011;65855;42.030;13.078;2023-12-20T00:46:57;3.10;;;2.03;;
76894;SDS011;65855;42.030;13.078;2023-12-20T00:49:23;3.05;;;2.35;;
76894;SDS011;65855;42.030;13.078;2023-12-20T00:51:48;1.70;;;1.13;;
76894;SDS011;65855;42.030;13.078;2023-12-20T00:54:15;2.95;;;2.33;;
76894;SDS011;65855;42.030;13.078;2023-12-20T00:56:40;4.55;;;2.63;;
76894;SDS011;65855;42.030;13.078;2023-12-20T00:59:06;3.23;;;2.60;;
76894;SDS011;65855;42.030;13.078;2023-12-20T01:01:31;3.20;;;2.45;;
76894;SDS011;65855;42.030;13.078;2023-12-20T01:03:58;3.55;;;3.25;;
76894;SDS011;65855;42.030;13.078;2023-12-20T01:06:23;3.77;;;2.43;;
76894;SDS011;65855;42.030;13.078;2023-12-20T01:08:48;4.88;;;2.60;;
76894;SDS011;65855;42.030;13.078;2023-12-20T01:11:14;3.77;;;2.83;;
76894;SDS011;65855;42.030;13.078;2023-12-20T01:13:39;5.10;;;3.55;;
76894;SDS011;65855;42.030;13.078;2023-12-20T01:16:04;4.73;;;2.90;;
76894;SDS011;65855;42.030;13.078;2023-12-20T01:18:30;4.78;;;2.83;;
76894;SDS011;65855;42.030;13.078;2023-12-20T01:20:56;3.78;;;3.05;;
76894;SDS011;65855;42.030;13.078;2023-12-20T01:23:21;4.20;;;1.63;;
76894;SDS011;65855;42.030;13.078;2023-12-20T01:25:46;6.30;;;4.40;;
76894;SDS011;65855;42.030;13.078;2023-12-20T01:28:12;5.33;;;2.90;;
76894;SDS011;65855;42.030;13.078;2023-12-20T01:30:37;4.87;;;3.23;;
76894;SDS011;65855;42.030;13.078;2023-12-20T01:33:02;5.03;;;2.53;;
76894;SDS011;65855;42.030;13.078;2023-12-20T01:35:28;4.50;;;2.35;;
76894;SDS011;65855;42.030;13.078;2023-12-20T01:37:53;3.90;;;3.33;;
76894;SDS011;65855;42.030;13.078;2023-12-20T01:40:22;5.15;;;3.15;;
76894;SDS011;65855;42.030;13.078;2023-12-20T01:42:47;3.13;;;2.33;;
76894;SDS011;65855;42.030;13.078;2023-12-20T01:45:12;3.42;;;2.47;;
76894;SDS011;65855;42.030;13.078;2023-12-20T01:47:37;1.63;;;1.00;;
76894;SDS011;65855;42.030;13.078;2023-12-20T01:50:03;2.92;;;1.95;;
76894;SDS011;65855;42.030;13.078;2023-12-20T01:52:29;3.65;;;2.50;;
76894;SDS011;65855;42.030;13.078;2023-12-20T01:54:54;3.75;;;2.65;;
76894;SDS011;65855;42.030;13.078;2023-12-20T01:57:26;4.10;;;2.75;;
76894;SDS011;65855;42.030;13.078;2023-12-20T01:59:51;4.50;;;2.58;;
76894;SDS011;65855;42.030;13.078;2023-12-20T02:02:16;7.20;;;2.27;;
76894;SDS011;65855;42.030;13.078;2023-12-20T02:04:42;4.53;;;2.60;;
76894;SDS011;65855;42.030;13.078;2023-12-20T02:07:08;2.40;;;1.38;;
76894;SDS011;65855;42.030;13.078;2023-12-20T02:09:33;5.32;;;3.05;;
76894;SDS011;65855;42.030;13.078;2023-12-20T02:11:59;4.30;;;1.98;;
76894;SDS011;65855;42.030;13.078;2023-12-20T02:14:25;5.38;;;3.10;;
76894;SDS011;65855;42.030;13.078;2023-12-20T02:16:50;6.67;;;6.07;;
76894;SDS011;65855;42.030;13.078;2023-12-20T02:19:15;4.45;;;3.25;;
76894;SDS011;65855;42.030;13.078;2023-12-20T02:21:42;3.90;;;2.58;;
76894;SDS011;65855;42.030;13.078;2023-12-20T02:24:08;3.05;;;1.42;;
76894;SDS011;65855;42.030;13.078;2023-12-20T02:26:33;3.90;;;2.13;;
76894;SDS011;65855;42.030;13.078;2023-12-20T02:28:59;3.90;;;2.63;;
76894;SDS011;65855;42.030;13.078;2023-12-20T02:31:24;3.40;;;2.83;;
76894;SDS011;65855;42.030;13.078;2023-12-20T02:33:49;4.78;;;3.15;;
76894;SDS011;65855;42.030;13.078;2023-12-20T02:36:15;3.10;;;2.00;;
76894;SDS011;65855;42.030;13.078;2023-12-20T02:38:40;2.28;;;1.17;;
76894;SDS011;65855;42.030;13.078;2023-12-20T02:41:05;2.60;;;1.93;;
76894;SDS011;65855;42.030;13.078;2023-12-20T02:43:31;1.50;;;1.00;;
76894;SDS011;65855;42.030;13.078;2023-12-20T02:45:56;2.87;;;2.10;;
76894;SDS011;65855;42.030;13.078;2023-12-20T02:48:22;2.97;;;2.33;;
76894;SDS011;65855;42.030;13.078;2023-12-20T02:50:47;2.67;;;1.85;;
76894;SDS011;65855;42.030;13.078;2023-12-20T02:53:14;3.42;;;2.88;;
76894;SDS011;65855;42.030;13.078;2023-12-20T02:55:39;3.78;;;3.45;;
76894;SDS011;65855;42.030;13.078;2023-12-20T02:58:04;2.80;;;1.93;;
76894;SDS011;65855;42.030;13.078;2023-12-20T03:00:29;2.77;;;1.97;;
76894;SDS011;65855;42.030;13.078;2023-12-20T03:02:55;2.80;;;2.10;;
76894;SDS011;65855;42.030;13.078;2023-12-20T03:05:20;3.43;;;2.17;;
76894;SDS011;65855;42.030;13.078;2023-12-20T03:07:45;2.38;;;1.02;;
76894;SDS011;65855;42.030;13.078;2023-12-20T03:10:11;4.00;;;2.60;;
76894;SDS011;65855;42.030;13.078;2023-12-20T03:12:36;3.33;;;2.28;;
76894;SDS011;65855;42.030;13.078;2023-12-20T03:15:02;4.13;;;2.15;;
76894;SDS011;65855;42.030;13.078;2023-12-20T03:17:27;3.83;;;2.55;;
76894;SDS011;65855;42.030;13.078;2023-12-20T03:19:52;3.60;;;2.90;;
76894;SDS011;65855;42.030;13.078;2023-12-20T03:22:17;3.37;;;2.30;;
76894;SDS011;65855;42.030;13.078;2023-12-20T03:24:43;4.13;;;2.77;;
76894;SDS011;65855;42.030;13.078;2023-12-20T03:27:08;4.57;;;3.30;;
76894;SDS011;65855;42.030;13.078;2023-12-20T03:29:33;2.80;;;2.07;;
76894;SDS011;65855;42.030;13.078;2023-12-20T03:31:59;2.70;;;1.83;;
76894;SDS011;65855;42.030;13.078;2023-12-20T03:34:24;3.93;;;3.37;;
76894;SDS011;65855;42.030;13.078;2023-12-20T03:36:49;4.20;;;2.63;;
76894;SDS011;65855;42.030;13.078;2023-12-20T03:39:14;4.50;;;2.67;;
76894;SDS011;65855;42.030;13.078;2023-12-20T03:41:40;4.87;;;3.47;;
76894;SDS011;65855;42.030;13.078;2023-12-20T03:44:05;5.38;;;2.22;;
76894;SDS011;65855;42.030;13.078;2023-12-20T03:46:30;5.22;;;3.65;;
76894;SDS011;65855;42.030;13.078;2023-12-20T03:48:56;4.45;;;3.42;;
76894;SDS011;65855;42.030;13.078;2023-12-20T03:51:22;3.95;;;2.90;;
76894;SDS011;65855;42.030;13.078;2023-12-20T03:53:47;3.88;;;2.78;;
76894;SDS011;65855;42.030;13.078;2023-12-20T03:56:13;5.90;;;3.60;;
76894;SDS011;65855;42.030;13.078;2023-12-20T03:58:38;4.27;;;3.77;;
76894;SDS011;65855;42.030;13.078;2023-12-20T04:01:03;8.57;;;5.32;;
76894;SDS011;65855;42.030;13.078;2023-12-20T04:03:33;7.20;;;3.00;;
76894;SDS011;65855;42.030;13.078;2023-12-20T04:05:59;3.87;;;1.73;;
76894;SDS011;65855;42.030;13.078;2023-12-20T04:08:24;10.15;;;4.07;;
76894;SDS011;65855;42.030;13.078;2023-12-20T04:10:49;3.25;;;2.58;;
76894;SDS011;65855;42.030;13.078;2023-12-20T04:13:15;2.30;;;1.67;;
76894;SDS011;65855;42.030;13.078;2023-12-20T04:15:40;3.23;;;2.33;;
76894;SDS011;65855;42.030;13.078;2023-12-20T04:18:05;2.63;;;1.83;;
76894;SDS011;65855;42.030;13.078;2023-12-20T04:20:31;3.30;;;2.22;;
76894;SDS011;65855;42.030;13.078;2023-12-20T04:22:56;3.93;;;3.00;;
76894;SDS011;65855;42.030;13.078;2023-12-20T04:25:21;4.87;;;3.27;;
76894;SDS011;65855;42.030;13.078;2023-12-20T04:27:46;5.37;;;4.77;;
76894;SDS011;65855;42.030;13.078;2023-12-20T04:30:12;6.50;;;2.88;;
76894;SDS011;65855;42.030;13.078;2023-12-20T04:32:37;5.60;;;3.60;;
76894;SDS011;65855;42.030;13.078;2023-12-20T04:35:02;6.00;;;3.37;;
76894;SDS011;65855;42.030;13.078;2023-12-20T04:37:28;6.68;;;4.07;;
76894;SDS011;65855;42.030;13.078;2023-12-20T04:39:53;5.22;;;3.17;;
76894;SDS011;65855;42.030;13.078;2023-12-20T04:42:18;4.67;;;2.93;;
76894;SDS011;65855;42.030;13.078;2023-12-20T04:44:44;3.23;;;2.30;;
76894;SDS011;65855;42.030;13.078;2023-12-20T04:47:09;4.17;;;2.73;;
76894;SDS011;65855;42.030;13.078;2023-12-20T04:49:34;4.23;;;2.83;;
76894;SDS011;65855;42.030;13.078;2023-12-20T04:51:59;4.67;;;2.97;;
76894;SDS011;65855;42.030;13.078;2023-12-20T04:54:25;9.10;;;3.40;;
76894;SDS011;65855;42.030;13.078;2023-12-20T04:56:50;4.13;;;2.07;;
76894;SDS011;65855;42.030;13.078;2023-12-20T04:59:15;6.05;;;2.75;;
76894;SDS011;65855;42.030;13.078;2023-12-20T05:01:41;4.37;;;2.30;;
76894;SDS011;65855;42.030;13.078;2023-12-20T05:04:06;4.93;;;2.85;;
76894;SDS011;65855;42.030;13.078;2023-12-20T05:06:31;3.28;;;1.67;;
76894;SDS011;65855;42.030;13.078;2023-12-20T05:08:57;3.10;;;2.47;;
76894;SDS011;65855;42.030;13.078;2023-12-20T05:11:22;2.43;;;1.83;;
76894;SDS011;65855;42.030;13.078;2023-12-20T05:13:47;3.83;;;1.87;;
76894;SDS011;65855;42.030;13.078;2023-12-20T05:16:13;3.23;;;2.57;;
76894;SDS011;65855;42.030;13.078;2023-12-20T05:18:39;4.55;;;3.00;;
76894;SDS011;65855;42.030;13.078;2023-12-20T05:21:05;3.97;;;3.53;;
76894;SDS011;65855;42.030;13.078;2023-12-20T05:23:30;3.73;;;3.00;;
76894;SDS011;65855;42.030;13.078;2023-12-20T05:25:55;4.13;;;2.50;;
76894;SDS011;65855;42.030;13.078;2023-12-20T05:28:20;4.28;;;3.15;;
76894;SDS011;65855;42.030;13.078;2023-12-20T05:30:46;4.10;;;3.70;;
76894;SDS011;65855;42.030;13.078;2023-12-20T05:33:11;3.90;;;3.03;;
76894;SDS011;65855;42.030;13.078;2023-12-20T05:35:36;4.73;;;2.93;;
76894;SDS011;65855;42.030;13.078;2023-12-20T05:38:02;3.13;;;2.08;;
76894;SDS011;65855;42.030;13.078;2023-12-20T05:40:27;3.05;;;1.42;;
76894;SDS011;65855;42.030;13.078;2023-12-20T05:42:53;4.30;;;2.67;;
76894;SDS011;65855;42.030;13.078;2023-12-20T05:45:19;3.85;;;2.95;;
76894;SDS011;65855;42.030;13.078;2023-12-20T05:47:44;5.60;;;3.07;;
76894;SDS011;65855;42.030;13.078;2023-12-20T05:50:09;7.25;;;3.33;;
76894;SDS011;65855;42.030;13.078;2023-12-20T05:52:35;9.85;;;3.92;;
76894;SDS011;65855;42.030;13.078;2023-12-20T05:55:00;6.10;;;3.43;;
76894;SDS011;65855;42.030;13.078;2023-12-20T05:57:28;4.43;;;3.10;;
76894;SDS011;65855;42.030;13.078;2023-12-20T05:59:54;4.53;;;3.30;;
76894;SDS011;65855;42.030;13.078;2023-12-20T06:02:19;4.30;;;2.27;;
76894;SDS011;65855;42.030;13.078;2023-12-20T06:04:44;3.57;;;3.07;;
76894;SDS011;65855;42.030;13.078;2023-12-20T06:07:12;4.75;;;2.15;;
76894;SDS011;65855;42.030;13.078;2023-12-20T06:09:38;5.43;;;3.30;;
76894;SDS011;65855;42.030;13.078;2023-12-20T06:12:03;5.40;;;3.75;;
76894;SDS011;65855;42.030;13.078;2023-12-20T06:14:29;4.03;;;2.95;;
76894;SDS011;65855;42.030;13.078;2023-12-20T06:16:55;4.28;;;3.15;;
76894;SDS011;65855;42.030;13.078;2023-12-20T06:19:21;6.60;;;3.08;;
76894;SDS011;65855;42.030;13.078;2023-12-20T06:21:46;3.90;;;1.83;;
76894;SDS011;65855;42.030;13.078;2023-12-20T06:24:11;6.75;;;3.00;;
76894;SDS011;65855;42.030;13.078;2023-12-20T06:26:37;7.10;;;3.90;;
76894;SDS011;65855;42.030;13.078;2023-12-20T06:29:02;4.50;;;2.97;;
76894;SDS011;65855;42.030;13.078;2023-12-20T06:31:27;7.50;;;3.75;;
76894;SDS011;65855;42.030;13.078;2023-12-20T06:33:53;12.80;;;5.20;;
76894;SDS011;65855;42.030;13.078;2023-12-20T06:36:22;11.18;;;6.05;;
76894;SDS011;65855;42.030;13.078;2023-12-20T06:38:47;3.20;;;2.20;;
76894;SDS011;65855;42.030;13.078;2023-12-20T06:41:13;3.83;;;2.63;;
76894;SDS011;65855;42.030;13.078;2023-12-20T06:43:39;11.90;;;4.80;;
76894;SDS011;65855;42.030;13.078;2023-12-20T06:46:04;5.00;;;3.73;;
76894;SDS011;65855;42.030;13.078;2023-12-20T06:48:29;4.93;;;2.90;;
76894;SDS011;65855;42.030;13.078;2023-12-20T06:50:55;5.18;;;2.75;;
76894;SDS011;65855;42.030;13.078;2023-12-20T06:53:20;4.07;;;2.73;;
76894;SDS011;65855;42.030;13.078;2023-12-20T06:55:45;8.30;;;5.47;;
76894;SDS011;65855;42.030;13.078;2023-12-20T06:58:11;12.33;;;7.00;;
76894;SDS011;65855;42.030;13.078;2023-12-20T07:00:36;10.98;;;5.70;;
76894;SDS011;65855;42.030;13.078;2023-12-20T07:03:01;11.18;;;5.72;;
76894;SDS011;65855;42.030;13.078;2023-12-20T07:05:27;10.70;;;5.60;;
76894;SDS011;65855;42.030;13.078;2023-12-20T07:07:53;7.03;;;4.22;;
76894;SDS011;65855;42.030;13.078;2023-12-20T07:10:19;7.93;;;4.07;;
76894;SDS011;65855;42.030;13.078;2023-12-20T07:12:44;6.43;;;3.15;;
76894;SDS011;65855;42.030;13.078;2023-12-20T07:15:09;6.73;;;2.93;;
76894;SDS011;65855;42.030;13.078;2023-12-20T07:17:35;9.40;;;4.72;;
76894;SDS011;65855;42.030;13.078;2023-12-20T07:20:00;8.70;;;5.22;;
76894;SDS011;65855;42.030;13.078;2023-12-20T07:22:29;13.30;;;7.03;;
76894;SDS011;65855;42.030;13.078;2023-12-20T07:24:56;13.93;;;8.27;;
76894;SDS011;65855;42.030;13.078;2023-12-20T07:27:21;10.27;;;6.28;;
76894;SDS011;65855;42.030;13.078;2023-12-20T07:29:47;9.53;;;6.87;;
76894;SDS011;65855;42.030;13.078;2023-12-20T07:32:12;9.47;;;3.97;;
76894;SDS011;65855;42.030;13.078;2023-12-20T07:34:37;9.20;;;6.55;;
76894;SDS011;65855;42.030;13.078;2023-12-20T07:37:03;10.03;;;5.97;;
76894;SDS011;65855;42.030;13.078;2023-12-20T07:39:29;9.65;;;5.38;;
76894;SDS011;65855;42.030;13.078;2023-12-20T07:41:54;8.38;;;5.00;;
76894;SDS011;65855;42.030;13.078;2023-12-20T07:44:19;5.18;;;3.72;;
76894;SDS011;65855;42.030;13.078;2023-12-20T07:46:45;5.40;;;2.57;;
76894;SDS011;65855;42.030;13.078;2023-12-20T07:49:10;5.83;;;3.33;;
76894;SDS011;65855;42.030;13.078;2023-12-20T07:51:36;5.03;;;2.63;;
76894;SDS011;65855;42.030;13.078;2023-12-20T07:54:01;4.88;;;2.65;;
76894;SDS011;65855;42.030;13.078;2023-12-20T07:56:28;7.03;;;3.38;;
76894;SDS011;65855;42.030;13.078;2023-12-20T07:58:53;7.33;;;3.20;;
76894;SDS011;65855;42.030;13.078;2023-12-20T08:01:19;8.67;;;3.63;;
76894;SDS011;65855;42.030;13.078;2023-12-20T08:03:44;11.00;;;6.15;;
76894;SDS011;65855;42.030;13.078;2023-12-20T08:06:10;10.93;;;6.50;;
76894;SDS011;65855;42.030;13.078;2023-12-20T08:08:35;9.67;;;6.00;;
76894;SDS011;65855;42.030;13.078;2023-12-20T08:11:00;7.38;;;3.30;;
76894;SDS011;65855;42.030;13.078;2023-12-20T08:13:26;8.15;;;3.88;;
76894;SDS011;65855;42.030;13.078;2023-12-20T08:15:52;7.72;;;3.10;;
76894;SDS011;65855;42.030;13.078;2023-12-20T08:18:17;5.63;;;2.08;;
76894;SDS011;65855;42.030;13.078;2023-12-20T08:20:42;9.38;;;4.05;;
76894;SDS011;65855;42.030;13.078;2023-12-20T08:23:07;11.20;;;4.63;;
76894;SDS011;65855;42.030;13.078;2023-12-20T08:25:33;9.50;;;4.53;;
76894;SDS011;65855;42.030;13.078;2023-12-20T08:27:58;9.93;;;5.20;;
76894;SDS011;65855;42.030;13.078;2023-12-20T08:30:23;9.40;;;5.00;;
76894;SDS011;65855;42.030;13.078;2023-12-20T08:32:50;9.93;;;6.32;;
76894;SDS011;65855;42.030;13.078;2023-12-20T08:35:15;12.60;;;4.93;;
76894;SDS011;65855;42.030;13.078;2023-12-20T08:37:40;13.80;;;7.28;;
76894;SDS011;65855;42.030;13.078;2023-12-20T08:40:06;8.53;;;5.40;;
76894;SDS011;65855;42.030;13.078;2023-12-20T08:42:31;7.78;;;4.30;;
76894;SDS011;65855;42.030;13.078;2023-12-20T08:44:57;8.40;;;3.53;;
76894;SDS011;65855;42.030;13.078;2023-12-20T08:47:23;7.30;;;3.33;;
76894;SDS011;65855;42.030;13.078;2023-12-20T08:49:48;5.47;;;2.72;;
76894;SDS011;65855;42.030;13.078;2023-12-20T08:52:14;4.82;;;1.92;;
76894;SDS011;65855;42.030;13.078;2023-12-20T08:54:39;5.47;;;2.90;;
76894;SDS011;65855;42.030;13.078;2023-12-20T08:57:04;5.70;;;2.67;;
76894;SDS011;65855;42.030;13.078;2023-12-20T08:59:31;5.78;;;2.55;;
76894;SDS011;65855;42.030;13.078;2023-12-20T09:01:57;7.88;;;2.88;;
76894;SDS011;65855;42.030;13.078;2023-12-20T09:04:22;6.93;;;2.13;;
76894;SDS011;65855;42.030;13.078;2023-12-20T09:06:47;7.80;;;2.80;;
76894;SDS011;65855;42.030;13.078;2023-12-20T09:09:13;7.67;;;3.00;;
76894;SDS011;65855;42.030;13.078;2023-12-20T09:11:41;8.32;;;2.70;;
76894;SDS011;65855;42.030;13.078;2023-12-20T09:14:07;6.63;;;2.83;;
76894;SDS011;65855;42.030;13.078;2023-12-20T09:16:32;6.93;;;2.03;;
76894;SDS011;65855;42.030;13.078;2023-12-20T09:18:57;6.15;;;1.75;;
76894;SDS011;65855;42.030;13.078;2023-12-20T09:21:23;4.88;;;1.65;;
76894;SDS011;65855;42.030;13.078;2023-12-20T09:23:48;5.80;;;2.05;;
76894;SDS011;65855;42.030;13.078;2023-12-20T09:26:13;7.23;;;2.03;;
76894;SDS011;65855;42.030;13.078;2023-12-20T09:28:39;14.20;;;4.65;;
76894;SDS011;65855;42.030;13.078;2023-12-20T09:31:05;8.90;;;2.50;;
76894;SDS011;65855;42.030;13.078;2023-12-20T09:33:31;8.98;;;2.47;;
76894;SDS011;65855;42.030;13.078;2023-12-20T09:35:57;5.75;;;2.20;;
76894;SDS011;65855;42.030;13.078;2023-12-20T09:38:22;7.30;;;2.78;;
76894;SDS011;65855;42.030;13.078;2023-12-20T09:40:47;9.50;;;3.05;;
76894;SDS011;65855;42.030;13.078;2023-12-20T09:43:14;17.63;;;2.95;;
76894;SDS011;65855;42.030;13.078;2023-12-20T09:45:40;9.65;;;2.13;;
76894;SDS011;65855;42.030;13.078;2023-12-20T09:48:06;12.82;;;3.00;;
76894;SDS011;65855;42.030;13.078;2023-12-20T09:50:32;7.30;;;2.42;;
76894;SDS011;65855;42.030;13.078;2023-12-20T09:52:58;9.23;;;3.05;;
76894;SDS011;65855;42.030;13.078;2023-12-20T09:55:24;9.35;;;2.75;;
76894;SDS011;65855;42.030;13.078;2023-12-20T09:57:50;10.05;;;3.83;;
76894;SDS011;65855;42.030;13.078;2023-12-20T10:00:15;12.95;;;2.47;;
76894;SDS011;65855;42.030;13.078;2023-12-20T10:02:45;9.95;;;3.83;;
76894;SDS011;65855;42.030;13.078;2023-12-20T10:05:11;6.18;;;3.10;;
76894;SDS011;65855;42.030;13.078;2023-12-20T10:07:40;8.68;;;3.03;;
76894;SDS011;65855;42.030;13.078;2023-12-20T10:10:06;8.07;;;3.40;;
76894;SDS011;65855;42.030;13.078;2023-12-20T10:12:33;7.20;;;2.05;;
76894;SDS011;65855;42.030;13.078;2023-12-20T10:14:59;4.88;;;2.70;;
76894;SDS011;65855;42.030;13.078;2023-12-20T10:17:24;5.97;;;2.10;;
76894;SDS011;65855;42.030;13.078;2023-12-20T10:19:54;6.72;;;2.50;;
76894;SDS011;65855;42.030;13.078;2023-12-20T10:22:19;8.57;;;2.50;;
76894;SDS011;65855;42.030;13.078;2023-12-20T10:24:45;8.57;;;2.77;;
76894;SDS011;65855;42.030;13.078;2023-12-20T10:27:11;13.18;;;4.78;;
76894;SDS011;65855;42.030;13.078;2023-12-20T10:29:37;19.50;;;6.53;;
76894;SDS011;65855;42.030;13.078;2023-12-20T10:32:21;11.23;;;5.22;;
76894;SDS011;65855;42.030;13.078;2023-12-20T10:34:47;8.90;;;3.63;;
76894;SDS011;65855;42.030;13.078;2023-12-20T10:37:13;13.83;;;3.97;;
76894;SDS011;65855;42.030;13.078;2023-12-20T10:39:38;6.60;;;1.90;;
76894;SDS011;65855;42.030;13.078;2023-12-20T10:42:04;9.60;;;2.60;;
76894;SDS011;65855;42.030;13.078;2023-12-20T10:44:29;10.52;;;2.17;;
76894;SDS011;65855;42.030;13.078;2023-12-20T10:46:54;5.80;;;1.87;;
76894;SDS011;65855;42.030;13.078;2023-12-20T10:49:23;7.55;;;2.53;;
76894;SDS011;65855;42.030;13.078;2023-12-20T10:51:49;9.73;;;3.33;;
76894;SDS011;65855;42.030;13.078;2023-12-20T10:54:16;7.07;;;2.58;;
76894;SDS011;65855;42.030;13.078;2023-12-20T10:56:42;8.65;;;2.88;;
76894;SDS011;65855;42.030;13.078;2023-12-20T10:59:07;7.27;;;2.93;;
76894;SDS011;65855;42.030;13.078;2023-12-20T11:01:35;7.70;;;3.40;;
76894;SDS011;65855;42.030;13.078;2023-12-20T11:04:00;5.68;;;2.60;;
76894;SDS011;65855;42.030;13.078;2023-12-20T11:06:45;6.65;;;2.40;;
76894;SDS011;65855;42.030;13.078;2023-12-20T11:09:25;6.60;;;2.47;;
76894;SDS011;65855;42.030;13.078;2023-12-20T11:12:03;9.27;;;3.45;;
76894;SDS011;65855;42.030;13.078;2023-12-20T11:14:34;10.35;;;3.15;;
76894;SDS011;65855;42.030;13.078;2023-12-20T11:17:09;9.77;;;2.50;;
76894;SDS011;65855;42.030;13.078;2023-12-20T11:19:38;5.45;;;2.72;;
76894;SDS011;65855;42.030;13.078;2023-12-20T11:22:08;5.43;;;2.65;;
76894;SDS011;65855;42.030;13.078;2023-12-20T11:24:33;7.35;;;2.70;;
76894;SDS011;65855;42.030;13.078;2023-12-20T11:26:59;5.40;;;2.10;;
76894;SDS011;65855;42.030;13.078;2023-12-20T11:29:31;5.97;;;2.83;;
76894;SDS011;65855;42.030;13.078;2023-12-20T11:31:59;6.72;;;2.83;;
76894;SDS011;65855;42.030;13.078;2023-12-20T11:34:26;6.80;;;2.42;;
76894;SDS011;65855;42.030;13.078;2023-12-20T11:36:56;6.40;;;2.67;;
76894;SDS011;65855;42.030;13.078;2023-12-20T11:39:22;6.53;;;2.50;;
76894;SDS011;65855;42.030;13.078;2023-12-20T11:41:48;8.15;;;2.75;;
76894;SDS011;65855;42.030;13.078;2023-12-20T11:44:14;7.30;;;3.00;;
76894;SDS011;65855;42.030;13.078;2023-12-20T11:46:42;6.75;;;2.38;;
76894;SDS011;65855;42.030;13.078;2023-12-20T11:49:07;5.17;;;2.40;;
76894;SDS011;65855;42.030;13.078;2023-12-20T11:51:32;6.03;;;2.30;;
76894;SDS011;65855;42.030;13.078;2023-12-20T11:53:58;7.33;;;2.97;;
76894;SDS011;65855;42.030;13.078;2023-12-20T11:56:23;6.23;;;1.80;;
76894;SDS011;65855;42.030;13.078;2023-12-20T11:58:48;6.03;;;2.13;;
76894;SDS011;65855;42.030;13.078;2023-12-20T12:01:14;7.47;;;2.80;;
76894;SDS011;65855;42.030;13.078;2023-12-20T12:03:39;8.97;;;3.07;;
76894;SDS011;65855;42.030;13.078;2023-12-20T12:06:06;5.45;;;2.20;;
76894;SDS011;65855;42.030;13.078;2023-12-20T12:08:32;5.95;;;2.33;;
76894;SDS011;65855;42.030;13.078;2023-12-20T12:10:58;6.65;;;2.97;;
76894;SDS011;65855;42.030;13.078;2023-12-20T12:13:24;5.72;;;2.25;;
76894;SDS011;65855;42.030;13.078;2023-12-20T12:15:52;8.70;;;2.55;;
76894;SDS011;65855;42.030;13.078;2023-12-20T12:18:17;7.60;;;2.33;;
76894;SDS011;65855;42.030;13.078;2023-12-20T12:20:43;6.43;;;2.00;;
76894;SDS011;65855;42.030;13.078;2023-12-20T12:23:08;5.68;;;2.13;;
76894;SDS011;65855;42.030;13.078;2023-12-20T12:25:37;7.32;;;2.08;;
76894;SDS011;65855;42.030;13.078;2023-12-20T12:28:02;6.28;;;2.30;;
76894;SDS011;65855;42.030;13.078;2023-12-20T12:30:28;6.68;;;2.40;;
76894;SDS011;65855;42.030;13.078;2023-12-20T12:32:53;6.22;;;2.90;;
76894;SDS011;65855;42.030;13.078;2023-12-20T12:35:19;7.43;;;2.92;;
76894;SDS011;65855;42.030;13.078;2023-12-20T12:37:44;7.95;;;2.55;;
76894;SDS011;65855;42.030;13.078;2023-12-20T12:40:10;6.10;;;2.38;;
76894;SDS011;65855;42.030;13.078;2023-12-20T12:42:36;8.40;;;2.72;;
76894;SDS011;65855;42.030;13.078;2023-12-20T12:45:01;6.70;;;3.40;;
76894;SDS011;65855;42.030;13.078;2023-12-20T12:47:27;7.07;;;2.60;;
76894;SDS011;65855;42.030;13.078;2023-12-20T12:49:52;6.68;;;2.90;;
76894;SDS011;65855;42.030;13.078;2023-12-20T12:52:19;5.75;;;2.67;;
76894;SDS011;65855;42.030;13.078;2023-12-20T12:54:44;6.30;;;2.40;;
76894;SDS011;65855;42.030;13.078;2023-12-20T12:57:10;6.93;;;2.95;;
76894;SDS011;65855;42.030;13.078;2023-12-20T12:59:35;6.57;;;3.22;;
76894;SDS011;65855;42.030;13.078;2023-12-20T13:02:01;6.10;;;3.45;;
76894;SDS011;65855;42.030;13.078;2023-12-20T13:04:26;6.47;;;3.63;;
76894;SDS011;65855;42.030;13.078;2023-12-20T13:06:52;7.18;;;4.05;;
76894;SDS011;65855;42.030;13.078;2023-12-20T13:09:17;7.65;;;3.47;;
76894;SDS011;65855;42.030;13.078;2023-12-20T13:11:44;8.75;;;3.80;;
76894;SDS011;65855;42.030;13.078;2023-12-20T13:14:09;6.53;;;3.47;;
76894;SDS011;65855;42.030;13.078;2023-12-20T13:16:39;7.18;;;2.53;;
76894;SDS011;65855;42.030;13.078;2023-12-20T13:19:04;13.60;;;5.70;;
76894;SDS011;65855;42.030;13.078;2023-12-20T13:21:30;7.57;;;3.45;;
76894;SDS011;65855;42.030;13.078;2023-12-20T13:23:56;6.38;;;3.65;;
76894;SDS011;65855;42.030;13.078;2023-12-20T13:26:21;5.33;;;2.20;;
76894;SDS011;65855;42.030;13.078;2023-12-20T13:28:46;7.25;;;2.97;;
76894;SDS011;65855;42.030;13.078;2023-12-20T13:31:11;7.20;;;3.33;;
76894;SDS011;65855;42.030;13.078;2023-12-20T13:33:37;6.80;;;3.45;;
76894;SDS011;65855;42.030;13.078;2023-12-20T13:36:02;5.22;;;2.15;;
76894;SDS011;65855;42.030;13.078;2023-12-20T13:38:29;7.80;;;2.83;;
76894;SDS011;65855;42.030;13.078;2023-12-20T13:40:54;5.78;;;3.10;;
76894;SDS011;65855;42.030;13.078;2023-12-20T13:43:20;5.00;;;2.77;;
76894;SDS011;65855;42.030;13.078;2023-12-20T13:45:47;5.55;;;2.95;;
76894;SDS011;65855;42.030;13.078;2023-12-20T13:48:12;6.55;;;2.65;;
76894;SDS011;65855;42.030;13.078;2023-12-20T13:50:38;6.05;;;2.97;;
76894;SDS011;65855;42.030;13.078;2023-12-20T13:53:03;6.07;;;2.80;;
76894;SDS011;65855;42.030;13.078;2023-12-20T13:55:29;6.25;;;3.13;;
76894;SDS011;65855;42.030;13.078;2023-12-20T13:57:55;8.85;;;4.85;;
76894;SDS011;65855;42.030;13.078;2023-12-20T14:00:21;10.10;;;6.10;;
76894;SDS011;65855;42.030;13.078;2023-12-20T14:02:46;8.38;;;4.75;;
76894;SDS011;65855;42.030;13.078;2023-12-20T14:05:13;6.60;;;3.83;;
76894;SDS011;65855;42.030;13.078;2023-12-20T14:07:39;7.10;;;4.95;;
76894;SDS011;65855;42.030;13.078;2023-12-20T14:10:05;7.63;;;4.23;;
76894;SDS011;65855;42.030;13.078;2023-12-20T14:12:31;8.77;;;5.00;;
76894;SDS011;65855;42.030;13.078;2023-12-20T14:15:00;8.13;;;4.65;;
76894;SDS011;65855;42.030;13.078;2023-12-20T14:17:26;8.65;;;4.82;;
76894;SDS011;65855;42.030;13.078;2023-12-20T14:19:51;11.57;;;5.33;;
76894;SDS011;65855;42.030;13.078;2023-12-20T14:22:16;10.82;;;7.38;;
76894;SDS011;65855;42.030;13.078;2023-12-20T14:24:42;11.20;;;6.18;;